Search for airport 
image banner adimage banner adimage banner ad
image banner ad

3CL0 - Uc Davis Medical Center Tower Ii

Located in Sacramento, United States

ICAO - 3CL0, IATA -

Data provided by Airmate  

General information

Coordinates: N38°33'18" W121°27'20"
Elevation is 236 feet MSL.
Magnetic variation is 15° East
View others Airports in California

Operational data

Special qualification required
Current time UTC:
Current local time:
Weather at : KSAC - Sacramento Executive ( 6 km )
METAR: KSAC 291453Z 18003KT 10SM CLR 19/13 A2991 RMK AO2 SLP128 T01890133 53009
TAF: KSAC 291132Z 2912/3012 18005KT P6SM FEW250 FM291600 23004KT 6SM HZ FEW250 FM292200 23008KT P6SM SCT250 FM300600 18004KT P6SM BKN250
View NOTAMs / SUP AIP / TFR affecting this airport [VIEW]
Communications frequencies: [VIEW]

Runways:

Airport contact information

Address: Sacramento United States

Satellite view of 3CL0